x

West Moresby (46208) Wave Buoy

7:00am - Tue 21st Oct 2014 All times are PDT. -7 hours from GMT.

  • Sig Wave height 11.5ft
  • Peak Period 8s
  • Wind
    27mph, 34mph gusts
  • Sea Temp 55°f
  • Air Temp 55°f
  • Sea Pressure 986.1mb
  • West Moresby
  • West Moresby

More Historic Weather Station data

Upgrade to MSW Pro to gain access to the past 30 days of data for over 8000 Wavebouys and Weather Stations around the globe.

Join Pro

Comparision Forecast

View Surf forecast
   
Tue 10/21 7:00am 11.5ft 8s 27 34 mph 986.1mb 55f 55f
6:00am 11ft 8s 22 27 mph 987.1mb 55f 53f
5:00am 11ft 9s 22 34 mph 987.5mb 55f 53f
4:00am 12ft 8s 27 34 mph 988.3mb 55f 53f
3:00am 12ft 12s 22 27 mph 988.1mb 54f 52f
2:00am 11.5ft 13s 22 29 mph 989.8mb 54f 50f
1:00am 11ft 10s 31 38 mph 990mb 55f 55f
12:00am 11ft 10s 27 34 mph 991.2mb 55f 54f
Mon 10/20 11:00pm 10ft 10s 25 31 mph 993.1mb 55f 51f
10:00pm 10.5ft 11s 22 29 mph 993.9mb 55f 55f
9:00pm 10ft 11s 22 29 mph 995mb 55f 52f
8:00pm 11ft 10s 22 27 mph 995.9mb 55f 54f
7:00pm 12ft 11s 18 22 mph 996.8mb 55f 54f
6:00pm 12ft 11s 16 18 mph 997.4mb 55f 54f
5:00pm 12ft 12s 13 18 mph 997.8mb 55f 55f
4:00pm 12ft 11s 11 13 mph 997.9mb 55f 54f
3:00pm 12ft 12s 11 16 mph 997.7mb 55f 55f
2:00pm 11ft 12s 11 13 mph 997.5mb 55f 54f
1:00pm 12ft 14s 9 11 mph 997.4mb 55f 55f
12:00pm 11.5ft 14s 9 11 mph 997.6mb 56f 54f
11:00am 11ft 12s 9 11 mph 997.4mb 56f 54f
10:00am 11ft 14s 9 11 mph 996.9mb 56f 54f
9:00am 10.5ft 10s 13 18 mph 996.4mb 56f 54f
8:00am 11.5ft 10s 13 18 mph 996.1mb 56f 54f
7:00am 10.5ft 13s 13 18 mph 995.6mb 56f 54f
6:00am 10.5ft 12s 13 18 mph 995.1mb 56f 54f
5:00am 11ft 11s 13 18 mph 994.6mb 56f 54f
4:00am 10.5ft 10s 16 18 mph 994.1mb 56f 55f
3:00am 12.5ft 10s 18 22 mph 993.5mb 56f 55f
2:00am 12.5ft 10s 18 20 mph 992.9mb 56f 55f
1:00am 12ft 12s 16 20 mph 991.9mb 56f 55f
12:00am 14ft 10s 16 18 mph 991.4mb 56f 55f
Sun 10/19 11:00pm 14ft 10s 22 31 mph 990.4mb 56f 54f
10:00pm 14.5ft 10s 18 22 mph 989.6mb 56f 54f
7:00pm 13ft 11s 18 20 mph 989.5mb 56f 55f
6:00pm 14ft 11s 18 20 mph 989.4mb 56f 54f
5:00pm 14ft 11s 13 20 mph 989.3mb 56f 53f
4:00pm 15ft 10s 16 20 mph 989.1mb 56f 56f
3:00pm 14.5ft 11s 18 22 mph 988.5mb 56f 56f
2:00pm 15.5ft 11s 18 22 mph 988mb 56f 56f
1:00pm 15.5ft 11s 20 22 mph 987.6mb 56f 55f
12:00pm 14.5ft 11s 18 22 mph 986.8mb 56f 56f
11:00am 15.5ft 11s 22 31 mph 985.5mb 56f 55f
10:00am 14.5ft 11s 18 22 mph 983.9mb 56f 54f
9:00am 14ft 10s 18 22 mph 982.5mb 56f 55f
8:00am 12.5ft 10s 16 22 mph 981.5mb 56f 55f
7:00am 13.5ft 10s 13 20 mph 980.3mb 55f 54f
6:00am 13ft 11s 13 16 mph 979.8mb 55f 54f
5:00am 13.5ft 10s 13 20 mph 982.3mb 55f 54f
4:00am 13ft 10s 18 22 mph 984.5mb 56f 55f
3:00am 13ft 10s 18 20 mph 987mb 56f 55f
2:00am 13ft 11s 16 20 mph 988.5mb 56f 56f
1:00am 12.5ft 11s 18 22 mph 989.7mb 56f 56f
12:00am 12ft 11s 18 22 mph 990.8mb 55f 56f
Sat 10/18 11:00pm 12ft 11s 18 20 mph 991.4mb 55f 56f
10:00pm 12ft 10s 18 22 mph 992mb 55f 56f
9:00pm 12.5ft 10s 18 22 mph 992.1mb 55f 56f
8:00pm 12.5ft 11s 18 20 mph 992.4mb 55f 56f
7:00pm 12ft 10s 18 22 mph 992.4mb 55f 56f
6:00pm 11ft 9s 18 22 mph 992.4mb 55f 57f
5:00pm 11.5ft 10s 20 25 mph 992.3mb 55f 57f
4:00pm 12ft 8s 20 25 mph 992.1mb 55f 57f
3:00pm 12.5ft 10s 20 25 mph 991.6mb 55f 57f
2:00pm 11.5ft 10s 20 25 mph 991.1mb 55f 57f
1:00pm 11.5ft 10s 18 22 mph 990.8mb 55f 57f
12:00pm 11ft 7s 18 25 mph 990.1mb 55f 57f
11:00am 11.5ft 7s 27 36 mph 989.1mb 55f 56f
10:00am 11ft 11s 27 34 mph 988.4mb 55f 55f
9:00am 10ft 10s 31 38 mph 990.1mb 55f 55f
8:00am 10ft 10s 29 36 mph 991mb 55f 55f
7:00am 10ft 11s 27 31 mph 992.8mb 55f 55f
6:00am 10ft 11s 27 34 mph 993.6mb 55f 56f
5:00am 11ft 11s 22 29 mph 994.7mb 55f 55f
4:00am 10ft 12s 18 25 mph 995.9mb 55f 55f
3:00am 10.5ft 11s 18 22 mph 996.5mb 55f 55f
2:00am 11ft 12s 16 20 mph 996.6mb 55f 55f
1:00am 11.5ft 11s 16 20 mph 996.4mb 55f 55f
12:00am 12ft 12s 13 16 mph 995.9mb 55f 55f
Fri 10/17 11:00pm 12ft 12s 9 13 mph 995mb 55f 54f
10:00pm 11ft 11s 16 20 mph 994mb 55f 55f
9:00pm 12ft 11s 18 22 mph 992.9mb 55f 55f
8:00pm 13ft 12s 18 25 mph 991.7mb 55f 55f
7:00pm 12ft 11s 18 22 mph 990.8mb 56f 53f
6:00pm 12.5ft 12s 18 25 mph 990.1mb 56f 53f
5:00pm 11.5ft 12s 20 25 mph 989.1mb 55f 54f
4:00pm 13ft 11s 18 22 mph 988.1mb 55f 54f